createdAt,value
2022-08-05T00:02:27.497Z,7.73
2022-08-05T00:04:56.205Z,6.50
2022-08-05T00:07:58.780Z,7.83
2022-08-05T00:10:10.199Z,4.83
2022-08-05T00:12:56.208Z,5.83
2022-08-05T00:15:55.741Z,6.77
2022-08-05T00:18:10.613Z,5.10
2022-08-05T00:20:48.883Z,5.00
2022-08-05T00:23:15.730Z,7.63
2022-08-05T00:25:46.158Z,5.37
2022-08-05T00:28:13.381Z,5.70
2022-08-05T00:30:41.186Z,7.43
2022-08-05T00:33:15.632Z,5.20
2022-08-05T00:36:16.343Z,6.40
2022-08-05T00:38:44.874Z,5.67
2022-08-05T00:41:11.949Z,5.20
2022-08-05T00:43:46.644Z,5.17
2022-08-05T00:46:16.378Z,4.57
2022-08-05T00:48:50.756Z,5.73
2022-08-05T00:51:50.806Z,6.37
2022-08-05T00:54:06.402Z,6.17
2022-08-05T00:56:33.055Z,5.23
2022-08-05T00:59:00.218Z,8.50
2022-08-05T01:01:42.623Z,7.70
2022-08-05T01:04:14.092Z,3.70
2022-08-05T01:06:41.121Z,7.20
2022-08-05T01:09:10.293Z,7.60
2022-08-05T01:11:39.342Z,4.23
2022-08-05T01:14:15.296Z,4.83
2022-08-05T01:17:02.650Z,6.57
2022-08-05T01:20:02.368Z,6.87
2022-08-05T01:22:36.016Z,8.67
2022-08-05T01:25:39.999Z,6.23
2022-08-05T01:28:23.375Z,5.43
2022-08-05T01:30:56.500Z,5.40
2022-08-05T01:33:26.125Z,7.03
2022-08-05T01:35:57.669Z,4.47
2022-08-05T01:38:29.103Z,12.40
2022-08-05T01:41:01.328Z,6.80
2022-08-05T01:43:29.806Z,7.50
2022-08-05T01:45:57.745Z,5.13
2022-08-05T01:48:27.638Z,10.03
2022-08-05T01:50:56.850Z,4.83
2022-08-05T01:53:57.048Z,6.70
2022-08-05T01:58:09.489Z,4.97
2022-08-05T01:59:06.619Z,4.73
2022-08-05T02:01:39.960Z,6.00
2022-08-05T02:04:09.328Z,6.10
2022-08-05T02:06:38.917Z,4.50
2022-08-05T02:09:07.358Z,3.77
2022-08-05T02:12:06.853Z,3.03
2022-08-05T02:14:48.036Z,6.40
2022-08-05T02:18:31.017Z,4.53
2022-08-05T02:20:30.518Z,5.33
2022-08-05T02:23:12.214Z,7.03
2022-08-05T02:25:50.085Z,4.87
2022-08-05T02:28:29.156Z,5.53
2022-08-05T02:31:01.053Z,6.43
2022-08-05T02:33:38.534Z,8.63
2022-08-05T02:36:09.650Z,5.13
2022-08-05T02:38:43.317Z,7.33
2022-08-05T02:41:16.887Z,6.87
2022-08-05T02:44:06.030Z,7.30
2022-08-05T02:46:34.053Z,4.90
2022-08-05T02:49:01.807Z,5.20
2022-08-05T02:52:02.708Z,7.13
2022-08-05T02:54:34.841Z,4.43
2022-08-05T02:57:09.863Z,6.67
2022-08-05T02:59:55.633Z,5.37
2022-08-05T03:02:29.981Z,7.40
2022-08-05T03:04:58.609Z,4.83
2022-08-05T03:08:00.456Z,4.50
2022-08-05T03:10:24.579Z,6.20
2022-08-05T03:12:54.214Z,7.33
2022-08-05T03:15:23.501Z,9.90
2022-08-05T03:17:54.146Z,4.60
2022-08-05T03:20:23.646Z,8.03
2022-08-05T03:22:51.470Z,7.37
2022-08-05T03:25:33.666Z,5.93
2022-08-05T03:28:08.908Z,7.37
2022-08-05T03:30:38.275Z,10.10
2022-08-05T03:33:08.392Z,6.57
2022-08-05T03:35:40.906Z,7.47
2022-08-05T03:38:11.920Z,6.03
2022-08-05T03:40:45.228Z,11.07
2022-08-05T03:43:58.323Z,6.17
2022-08-05T03:46:01.837Z,8.07
2022-08-05T03:48:29.933Z,9.33
2022-08-05T03:52:49.070Z,9.13
2022-08-05T03:55:50.505Z,8.77
2022-08-05T03:57:16.557Z,7.07
2022-08-05T03:59:55.933Z,7.33
2022-08-05T04:02:38.358Z,6.77
2022-08-05T04:05:13.243Z,6.70
2022-08-05T04:07:57.247Z,8.53
2022-08-05T04:10:28.083Z,7.60
2022-08-05T04:12:58.833Z,5.70
2022-08-05T04:15:27.766Z,5.40
2022-08-05T04:18:03.758Z,8.00
2022-08-05T04:20:33.708Z,7.37
2022-08-05T04:23:00.359Z,6.37
2022-08-05T04:25:57.689Z,7.70
2022-08-05T04:28:14.340Z,7.60
2022-08-05T04:30:41.677Z,6.80
2022-08-05T04:33:09.724Z,6.83
2022-08-05T04:36:15.848Z,10.07
2022-08-05T04:38:23.459Z,8.13
2022-08-05T04:41:06.764Z,8.10
2022-08-05T04:43:34.043Z,7.53
2022-08-05T04:46:01.061Z,8.20
2022-08-05T04:48:28.361Z,8.77
2022-08-05T04:51:02.811Z,9.87
2022-08-05T04:53:33.415Z,8.13
2022-08-05T04:56:33.607Z,8.80
2022-08-05T04:58:49.129Z,11.30
2022-08-05T05:01:15.842Z,11.50
2022-08-05T05:04:02.282Z,8.20
2022-08-05T05:06:39.568Z,7.87
2022-08-05T05:09:17.080Z,12.43
2022-08-05T05:11:54.514Z,8.73
2022-08-05T05:14:27.720Z,10.00
2022-08-05T05:16:59.129Z,7.87
2022-08-05T05:19:26.582Z,7.57
2022-08-05T05:22:03.633Z,7.87
2022-08-05T05:24:58.888Z,9.03
2022-08-05T05:27:44.909Z,9.97
2022-08-05T05:30:31.496Z,7.20
2022-08-05T05:33:09.015Z,9.20
2022-08-05T05:35:43.424Z,9.27
2022-08-05T05:38:13.533Z,11.47
2022-08-05T05:40:49.821Z,10.27
2022-08-05T05:43:22.350Z,9.17
2022-08-05T05:46:13.637Z,8.07
2022-08-05T05:48:43.932Z,11.30
2022-08-05T05:51:14.784Z,9.20
2022-08-05T05:53:54.222Z,11.80
2022-08-05T05:56:32.782Z,12.33
2022-08-05T05:59:05.060Z,9.57
2022-08-05T06:01:37.728Z,10.77
2022-08-05T06:04:07.205Z,9.93
2022-08-05T06:06:34.988Z,8.63
2022-08-05T06:09:03.954Z,9.80
2022-08-05T06:11:31.594Z,8.00
2022-08-05T06:14:00.436Z,9.07
2022-08-05T06:16:36.665Z,8.77
2022-08-05T06:19:05.735Z,9.43
2022-08-05T06:21:37.641Z,9.23
2022-08-05T06:24:12.147Z,7.73
2022-08-05T06:26:52.325Z,6.97
2022-08-05T06:29:24.947Z,7.93
2022-08-05T06:32:21.161Z,7.47
2022-08-05T06:34:53.424Z,8.70
2022-08-05T06:37:52.300Z,6.67
2022-08-05T06:40:10.355Z,7.23
2022-08-05T06:42:37.612Z,6.40
2022-08-05T06:45:08.578Z,5.27
2022-08-05T06:48:37.317Z,5.80
2022-08-05T06:50:27.069Z,5.17
2022-08-05T06:52:58.873Z,6.57
2022-08-05T06:55:37.908Z,7.17
2022-08-05T06:58:29.884Z,6.57
2022-08-05T07:00:59.707Z,6.73
2022-08-05T07:03:32.353Z,6.13
2022-08-05T07:06:06.256Z,3.93
2022-08-05T07:08:47.487Z,5.97
2022-08-05T07:11:15.599Z,5.57
2022-08-05T07:14:01.085Z,6.43
2022-08-05T07:18:01.402Z,6.43
2022-08-05T07:20:16.773Z,6.60
2022-08-05T07:22:29.031Z,5.53
2022-08-05T07:25:22.006Z,6.53
2022-08-05T07:27:58.799Z,5.67
2022-08-05T07:30:33.957Z,4.67
2022-08-05T07:33:04.990Z,5.80
2022-08-05T07:36:05.387Z,4.07
2022-08-05T07:38:32.452Z,4.20
2022-08-05T07:42:07.743Z,9.27
2022-08-05T07:44:04.209Z,5.13
2022-08-05T07:46:33.747Z,6.63
2022-08-05T07:49:05.806Z,5.23
2022-08-05T07:51:48.886Z,5.07
2022-08-05T07:54:30.603Z,6.03
2022-08-05T07:57:01.385Z,8.27
2022-08-05T07:59:41.645Z,6.33
2022-08-05T08:02:15.885Z,3.73
2022-08-05T08:04:48.439Z,6.10
2022-08-05T08:07:16.052Z,9.10
2022-08-05T08:09:44.506Z,3.40
2022-08-05T08:12:37.350Z,4.43
2022-08-05T08:15:02.100Z,8.07
2022-08-05T08:17:29.179Z,5.77
2022-08-05T08:20:43.428Z,5.20
2022-08-05T08:22:43.727Z,6.50
2022-08-05T08:25:15.805Z,6.83
2022-08-05T08:27:47.453Z,3.93
2022-08-05T08:30:30.160Z,6.83
2022-08-05T08:33:04.507Z,3.60
2022-08-05T08:35:34.996Z,4.70
2022-08-05T08:38:07.732Z,4.63
2022-08-05T08:40:35.358Z,3.67
2022-08-05T08:45:16.227Z,4.00
2022-08-05T08:45:54.151Z,4.73
2022-08-05T08:48:43.682Z,5.47
2022-08-05T08:51:30.630Z,4.37
2022-08-05T08:53:56.204Z,7.03
2022-08-05T08:56:26.968Z,3.07
2022-08-05T08:58:53.983Z,4.87
2022-08-05T09:01:21.144Z,4.10
2022-08-05T09:03:55.416Z,4.63
2022-08-05T09:06:30.010Z,3.30
2022-08-05T09:09:01.778Z,5.10
2022-08-05T09:11:53.126Z,6.70
2022-08-05T09:14:57.503Z,7.67
2022-08-05T09:17:05.553Z,4.70
2022-08-05T09:20:01.486Z,4.30
2022-08-05T09:22:32.185Z,2.83
2022-08-05T09:25:01.769Z,4.27
2022-08-05T09:28:05.811Z,3.67
2022-08-05T09:30:26.805Z,6.03
2022-08-05T09:32:53.772Z,2.13
2022-08-05T09:35:26.649Z,5.63
2022-08-05T09:38:12.918Z,3.33
2022-08-05T09:40:44.550Z,3.20
2022-08-05T09:43:41.698Z,3.07
2022-08-05T09:46:27.716Z,3.00
2022-08-05T09:49:07.595Z,4.13
2022-08-05T09:51:49.987Z,4.17
2022-08-05T09:54:28.875Z,3.90
2022-08-05T09:56:57.635Z,3.67
2022-08-05T09:59:27.972Z,3.53
2022-08-05T10:01:57.954Z,3.00
2022-08-05T10:04:38.477Z,3.43
2022-08-05T10:07:25.066Z,3.70
2022-08-05T10:10:13.749Z,3.17
2022-08-05T10:13:09.979Z,3.00
2022-08-05T10:15:41.240Z,4.03
2022-08-05T10:18:13.934Z,3.73
2022-08-05T10:20:48.333Z,3.40
2022-08-05T10:23:55.276Z,3.00
2022-08-05T10:26:15.252Z,3.43
2022-08-05T10:28:45.029Z,3.63
2022-08-05T10:32:50.933Z,2.70
2022-08-05T10:34:00.124Z,2.57
2022-08-05T10:36:27.415Z,6.27
2022-08-05T10:39:01.124Z,2.57
2022-08-05T10:41:45.527Z,5.70
2022-08-05T10:44:17.619Z,4.50
2022-08-05T10:46:45.503Z,3.27
2022-08-05T10:49:16.802Z,3.97
2022-08-05T10:51:59.838Z,4.83
2022-08-05T10:55:01.973Z,4.33
2022-08-05T10:57:31.011Z,2.70
2022-08-05T11:00:23.256Z,3.10
2022-08-05T11:02:59.011Z,2.53
2022-08-05T11:06:05.130Z,4.57
2022-08-05T11:08:37.079Z,2.70
2022-08-05T11:11:52.641Z,3.93
2022-08-05T11:15:01.018Z,1.90
2022-08-05T11:18:07.342Z,3.10
2022-08-05T11:20:39.171Z,3.50
2022-08-05T11:23:33.771Z,7.20
2022-08-05T11:26:28.439Z,3.73
2022-08-05T11:29:06.957Z,3.63
2022-08-05T11:31:58.871Z,3.00
2022-08-05T11:34:37.446Z,4.63
2022-08-05T11:37:06.099Z,2.50
2022-08-05T11:40:00.296Z,2.50
2022-08-05T11:42:38.016Z,3.23
2022-08-05T11:45:23.217Z,3.77
2022-08-05T11:47:55.177Z,5.03
2022-08-05T11:50:22.582Z,3.13
2022-08-05T11:52:52.043Z,3.80
2022-08-05T11:55:21.530Z,4.57
2022-08-05T11:58:09.556Z,4.03
2022-08-05T12:00:41.302Z,3.93
2022-08-05T12:03:29.265Z,4.67
2022-08-05T12:06:00.543Z,5.07
2022-08-05T12:08:27.593Z,4.70
2022-08-05T12:10:59.401Z,4.13
2022-08-05T12:13:48.919Z,5.70
2022-08-05T12:16:19.364Z,4.30
2022-08-05T12:18:49.565Z,4.77
2022-08-05T12:21:29.948Z,5.40
2022-08-05T12:24:06.782Z,3.70
2022-08-05T12:26:44.096Z,4.00
2022-08-05T12:29:17.859Z,3.70
2022-08-05T12:32:02.006Z,3.23
2022-08-05T12:34:31.417Z,2.70
2022-08-05T12:37:10.706Z,5.77
2022-08-05T12:39:39.460Z,2.50
2022-08-05T12:42:16.039Z,3.80
2022-08-05T12:44:47.388Z,2.33
2022-08-05T12:47:26.569Z,2.23
2022-08-05T12:50:03.698Z,3.07
2022-08-05T12:52:38.835Z,2.80
2022-08-05T12:55:22.528Z,2.17
2022-08-05T12:58:49.149Z,5.00
2022-08-05T13:02:01.159Z,4.37
2022-08-05T13:03:32.367Z,3.23
2022-08-05T13:06:00.891Z,2.37
2022-08-05T13:08:30.392Z,2.33
2022-08-05T13:11:04.409Z,2.30
2022-08-05T13:14:06.742Z,2.20
2022-08-05T13:16:20.321Z,2.77
2022-08-05T13:18:57.613Z,3.67
2022-08-05T13:21:28.451Z,2.57
2022-08-05T13:24:05.954Z,2.50
2022-08-05T13:26:35.515Z,2.80
2022-08-05T13:29:02.101Z,3.50
2022-08-05T13:31:33.916Z,3.50
2022-08-05T13:34:23.243Z,2.63
2022-08-05T13:36:52.388Z,3.30
2022-08-05T13:39:24.498Z,2.87
2022-08-05T13:42:05.915Z,4.07
2022-08-05T13:44:32.716Z,4.90
2022-08-05T13:47:04.807Z,4.47
2022-08-05T13:49:35.825Z,3.20
2022-08-05T13:52:17.535Z,2.93
2022-08-05T13:54:53.290Z,3.27
2022-08-05T13:57:21.070Z,4.93
2022-08-05T13:59:57.062Z,3.73
2022-08-05T14:02:26.568Z,5.90
2022-08-05T14:05:12.049Z,4.00
2022-08-05T14:08:00.611Z,2.10
2022-08-05T14:10:31.759Z,2.70
2022-08-05T14:12:59.646Z,2.70
2022-08-05T14:16:05.386Z,4.43
2022-08-05T14:18:17.573Z,3.17
2022-08-05T14:20:47.887Z,3.60
2022-08-05T14:23:23.403Z,2.60
2022-08-05T14:25:54.288Z,4.77
2022-08-05T14:28:26.371Z,4.53
2022-08-05T14:30:54.714Z,4.03
2022-08-05T14:33:23.009Z,2.73
2022-08-05T14:35:52.039Z,6.03
2022-08-05T14:38:32.911Z,4.07
2022-08-05T14:41:06.850Z,3.87
2022-08-05T14:44:01.930Z,4.70
2022-08-05T14:46:28.373Z,4.20
2022-08-05T14:48:57.019Z,4.10
2022-08-05T14:51:24.375Z,3.33
2022-08-05T14:54:28.817Z,2.17
2022-08-05T14:56:44.375Z,2.20
2022-08-05T14:59:13.847Z,4.90
2022-08-05T15:01:48.448Z,2.93
2022-08-05T15:04:16.187Z,5.30
2022-08-05T15:06:49.505Z,3.77
2022-08-05T15:09:52.194Z,4.23
2022-08-05T15:12:09.101Z,4.33
2022-08-05T15:14:48.393Z,4.87
2022-08-05T15:17:45.771Z,2.43
2022-08-05T15:20:05.077Z,4.23
2022-08-05T15:22:31.661Z,6.23
2022-08-05T15:24:59.329Z,4.03
2022-08-05T15:27:26.307Z,2.77
2022-08-05T15:29:58.970Z,2.87
2022-08-05T15:32:28.615Z,3.53
2022-08-05T15:34:56.066Z,3.03
2022-08-05T15:38:32.760Z,2.17
2022-08-05T15:41:00.503Z,2.37
2022-08-05T15:43:09.126Z,2.30
2022-08-05T15:45:43.556Z,2.90
2022-08-05T15:48:13.987Z,2.00
2022-08-05T15:50:43.843Z,1.17
2022-08-05T15:53:13.156Z,2.97
2022-08-05T15:56:02.463Z,2.23
2022-08-05T15:58:36.860Z,7.10
2022-08-05T16:01:16.433Z,2.20
2022-08-05T16:03:50.459Z,2.00
2022-08-05T16:06:19.589Z,2.00
2022-08-05T16:08:47.233Z,2.70
2022-08-05T16:11:14.247Z,1.37
2022-08-05T16:13:41.307Z,1.73
2022-08-05T16:16:08.088Z,2.37
2022-08-05T16:18:51.882Z,2.03
2022-08-05T16:21:20.555Z,1.57
2022-08-05T16:24:07.694Z,2.97
2022-08-05T16:26:59.409Z,1.30
2022-08-05T16:29:28.090Z,1.00
2022-08-05T16:31:58.104Z,2.33
2022-08-05T16:34:25.664Z,4.77
2022-08-05T16:36:53.624Z,2.77
2022-08-05T16:39:20.627Z,1.53
2022-08-05T16:42:14.901Z,3.60
2022-08-05T16:44:34.356Z,3.60
2022-08-05T16:47:01.027Z,1.87
2022-08-05T16:49:27.615Z,2.87
2022-08-05T16:51:58.864Z,2.37
2022-08-05T16:54:29.016Z,1.37
2022-08-05T16:56:59.603Z,1.77
2022-08-05T16:59:27.839Z,0.93
2022-08-05T17:01:57.732Z,2.93
2022-08-05T17:04:27.397Z,1.57
2022-08-05T17:07:00.042Z,2.10
2022-08-05T17:09:29.810Z,0.87
2022-08-05T17:12:00.309Z,3.57
2022-08-05T17:14:34.360Z,2.10
2022-08-05T17:17:05.960Z,1.03
2022-08-05T17:19:32.621Z,1.97
2022-08-05T17:22:00.733Z,2.10
2022-08-05T17:24:38.779Z,0.83
2022-08-05T17:27:09.191Z,3.40
2022-08-05T17:29:41.298Z,2.33
2022-08-05T17:32:17.056Z,2.57
2022-08-05T17:34:48.454Z,1.83
2022-08-05T17:37:41.040Z,1.43
2022-08-05T17:40:10.345Z,3.83
2022-08-05T17:42:42.988Z,2.50
2022-08-05T17:45:17.795Z,1.17
2022-08-05T17:47:53.025Z,2.80
2022-08-05T17:50:28.116Z,0.90
2022-08-05T17:52:56.128Z,0.83
2022-08-05T17:55:34.696Z,1.93
2022-08-05T17:58:13.356Z,1.20
2022-08-05T18:00:45.440Z,1.10
2022-08-05T18:06:05.884Z,0.50
2022-08-05T18:08:37.545Z,0.80
2022-08-05T18:11:07.570Z,1.83
2022-08-05T18:13:43.982Z,0.80
2022-08-05T18:16:14.552Z,1.07
2022-08-05T18:18:47.960Z,2.67
2022-08-05T18:21:21.401Z,1.63
2022-08-05T18:23:53.743Z,2.70
2022-08-05T18:26:29.071Z,1.70
2022-08-05T18:28:58.953Z,2.57
2022-08-05T18:31:26.127Z,1.17
2022-08-05T18:34:01.144Z,1.77
2022-08-05T18:36:29.531Z,2.03
2022-08-05T18:38:56.714Z,2.07
2022-08-05T18:41:56.461Z,1.43
2022-08-05T18:44:11.640Z,2.20
2022-08-05T18:46:41.320Z,0.67
2022-08-05T18:49:30.538Z,1.23
2022-08-05T18:52:32.747Z,2.00
2022-08-05T18:55:00.877Z,0.83
2022-08-05T18:57:27.543Z,1.37
2022-08-05T19:00:20.353Z,3.60
2022-08-05T19:02:47.864Z,2.60
2022-08-05T19:06:12.910Z,1.00
2022-08-05T19:08:02.782Z,1.13
2022-08-05T19:10:30.601Z,0.83
2022-08-05T19:12:57.562Z,1.43
2022-08-05T19:15:57.908Z,0.80
2022-08-05T19:18:21.833Z,1.83
2022-08-05T19:20:52.428Z,1.73
2022-08-05T19:24:04.255Z,0.83
2022-08-05T19:26:08.410Z,4.27
2022-08-05T19:28:41.584Z,1.07
2022-08-05T19:31:13.177Z,0.80
2022-08-05T19:33:48.293Z,1.77
2022-08-05T19:36:27.172Z,2.57
2022-08-05T19:39:00.545Z,1.50
2022-08-05T19:41:58.137Z,0.83
2022-08-05T19:44:14.695Z,1.17
2022-08-05T19:46:41.641Z,1.23
2022-08-05T19:49:12.455Z,1.33
2022-08-05T19:52:08.489Z,1.10
2022-08-05T19:54:32.904Z,1.43
2022-08-05T19:57:08.374Z,3.17
2022-08-05T19:59:54.799Z,1.53
2022-08-05T20:02:25.933Z,1.97
2022-08-05T20:04:53.012Z,1.60
2022-08-05T20:07:48.291Z,2.57
2022-08-05T20:10:13.776Z,3.27
2022-08-05T20:12:48.299Z,1.77
2022-08-05T20:15:23.129Z,2.67
2022-08-05T20:18:10.505Z,1.73
2022-08-05T20:20:56.276Z,2.73
2022-08-05T20:23:39.780Z,3.47
2022-08-05T20:26:15.924Z,2.07
2022-08-05T20:28:44.905Z,4.13
2022-08-05T20:31:11.523Z,3.23
2022-08-05T20:33:38.174Z,3.33
2022-08-05T20:36:09.039Z,2.50
2022-08-05T20:38:37.665Z,4.40
2022-08-05T20:41:08.428Z,2.93
2022-08-05T20:43:59.684Z,5.53
2022-08-05T20:46:25.196Z,4.13
2022-08-05T20:48:52.170Z,5.17
2022-08-05T20:51:18.814Z,6.40
2022-08-05T20:53:56.509Z,4.70
2022-08-05T20:56:29.755Z,10.53
2022-08-05T20:59:11.221Z,7.03
2022-08-05T21:01:42.820Z,3.93
2022-08-05T21:04:12.624Z,4.27
2022-08-05T21:06:45.495Z,2.37
2022-08-05T21:09:14.615Z,3.43
2022-08-05T21:12:07.463Z,2.13
2022-08-05T21:14:35.215Z,3.80
2022-08-05T21:17:05.246Z,4.40
2022-08-05T21:19:46.977Z,2.93
2022-08-05T21:22:17.770Z,2.07
2022-08-05T21:24:45.782Z,3.60
2022-08-05T21:27:16.300Z,5.80
2022-08-05T21:29:43.326Z,3.27
2022-08-05T21:32:19.906Z,2.23
2022-08-05T21:35:08.496Z,2.37
2022-08-05T21:37:34.083Z,4.50
2022-08-05T21:40:05.943Z,4.03
2022-08-05T21:42:43.889Z,4.83
2022-08-05T21:45:13.460Z,2.40
2022-08-05T21:47:57.051Z,4.27
2022-08-05T21:50:26.077Z,3.23
2022-08-05T21:52:52.935Z,1.60
2022-08-05T21:55:42.794Z,2.47
2022-08-05T21:58:10.331Z,2.30
2022-08-05T22:00:38.388Z,2.57
2022-08-05T22:03:07.087Z,5.40
2022-08-05T22:05:48.150Z,1.73
2022-08-05T22:08:22.411Z,1.57
2022-08-05T22:10:51.452Z,2.87
2022-08-05T22:14:32.605Z,2.10
2022-08-05T22:16:15.633Z,3.33
2022-08-05T22:18:49.098Z,2.73
2022-08-05T22:21:19.172Z,2.07
2022-08-05T22:24:09.101Z,2.47
2022-08-05T22:26:58.223Z,3.47
2022-08-05T22:29:26.619Z,3.60
2022-08-05T22:31:55.180Z,2.20
2022-08-05T22:34:28.838Z,3.40
2022-08-05T22:36:58.463Z,3.07
2022-08-05T22:39:32.532Z,3.53
2022-08-05T22:42:10.386Z,4.33
2022-08-05T22:44:39.539Z,4.13
2022-08-05T22:47:06.978Z,8.00
2022-08-05T22:50:18.348Z,2.57
2022-08-05T22:52:30.307Z,2.37
2022-08-05T22:55:01.121Z,3.57
2022-08-05T22:57:36.350Z,2.73
2022-08-05T23:00:07.865Z,3.43
2022-08-05T23:02:39.832Z,2.67
2022-08-05T23:05:12.952Z,2.53
2022-08-05T23:07:45.473Z,5.07
2022-08-05T23:10:20.016Z,2.83
2022-08-05T23:12:51.134Z,4.13
2022-08-05T23:15:21.810Z,5.17
2022-08-05T23:18:01.727Z,2.73
2022-08-05T23:20:37.311Z,1.63
2022-08-05T23:23:05.826Z,3.03
2022-08-05T23:25:52.253Z,4.83
2022-08-05T23:28:21.001Z,5.50
2022-08-05T23:30:53.107Z,4.03
2022-08-05T23:33:26.300Z,2.07
2022-08-05T23:36:10.258Z,3.27
2022-08-05T23:38:37.265Z,4.03
2022-08-05T23:41:03.833Z,2.87
2022-08-05T23:43:49.767Z,1.97
2022-08-05T23:46:21.040Z,5.07
2022-08-05T23:49:01.114Z,3.37
2022-08-05T23:51:53.496Z,1.73
2022-08-05T23:54:30.277Z,1.90
2022-08-05T23:57:04.934Z,1.87
